createdAt,value
2022-11-16T00:01:02.909Z,97764.34
2022-11-16T00:03:31.762Z,97764.88
2022-11-16T00:06:01.993Z,97764.09
2022-11-16T00:08:31.031Z,97767.09
2022-11-16T00:11:06.075Z,97772.06
2022-11-16T00:13:35.112Z,97770.81
2022-11-16T00:16:05.983Z,97772.72
2022-11-16T00:18:35.148Z,97781.00
2022-11-16T00:21:06.268Z,97779.22
2022-11-16T00:23:38.470Z,97786.63
2022-11-16T00:26:07.896Z,97773.66
2022-11-16T00:28:36.802Z,97783.88
2022-11-16T00:31:07.847Z,97772.63
2022-11-16T00:33:36.436Z,97774.44
2022-11-16T00:36:06.629Z,97776.97
2022-11-16T00:38:35.629Z,97773.31
2022-11-16T00:41:05.487Z,97778.00
2022-11-16T00:43:34.290Z,97775.38
2022-11-16T00:46:03.843Z,97772.00
2022-11-16T00:48:33.983Z,97768.91
2022-11-16T00:51:02.814Z,97771.75
2022-11-16T00:53:31.424Z,97770.41
2022-11-16T00:56:00.017Z,97766.84
2022-11-16T00:58:28.923Z,97765.41
2022-11-16T01:00:57.600Z,97763.59
2022-11-16T01:03:26.232Z,97757.50
2022-11-16T01:06:01.408Z,97751.00
2022-11-16T01:08:30.241Z,97748.00
2022-11-16T01:11:20.103Z,97731.06
2022-11-16T01:13:48.726Z,97723.47
2022-11-16T01:16:17.976Z,97733.59
2022-11-16T01:18:49.824Z,97727.13
2022-11-16T01:21:20.238Z,97730.97
2022-11-16T01:23:48.925Z,97735.50
2022-11-16T01:26:17.522Z,97731.22
2022-11-16T01:28:46.194Z,97732.00
2022-11-16T01:31:15.120Z,97736.19
2022-11-16T01:33:43.715Z,97732.22
2022-11-16T01:36:14.407Z,97730.44
2022-11-16T01:38:46.105Z,97716.81
2022-11-16T01:41:15.486Z,97723.03
2022-11-16T01:43:52.370Z,97719.41
2022-11-16T01:46:21.110Z,97724.34
2022-11-16T01:48:51.842Z,97741.56
2022-11-16T01:51:20.597Z,97747.00
2022-11-16T01:53:50.895Z,97728.19
2022-11-16T01:56:19.627Z,97721.97
2022-11-16T01:58:48.313Z,97722.50
2022-11-16T02:01:17.048Z,97717.75
2022-11-16T02:03:45.680Z,97723.38
2022-11-16T02:06:33.850Z,97716.03
2022-11-16T02:09:45.528Z,97715.66
2022-11-16T02:12:38.416Z,97711.69
2022-11-16T02:15:17.118Z,97704.00
2022-11-16T02:17:53.690Z,97696.41
2022-11-16T02:20:55.998Z,97702.75
2022-11-16T02:23:54.435Z,97701.63
2022-11-16T02:26:48.589Z,97699.72
2022-11-16T02:29:23.927Z,97705.50
2022-11-16T02:31:55.557Z,97693.50
2022-11-16T02:34:24.772Z,97698.00
2022-11-16T02:36:55.533Z,97692.59
2022-11-16T02:39:28.055Z,97703.13
2022-11-16T02:41:58.215Z,97704.13
2022-11-16T02:44:32.010Z,97701.75
2022-11-16T02:47:04.985Z,97710.41
2022-11-16T02:49:36.260Z,97712.78
2022-11-16T02:52:05.587Z,97702.63
2022-11-16T02:54:34.157Z,97702.09
2022-11-16T02:57:30.088Z,97704.00
2022-11-16T03:00:01.225Z,97704.72
2022-11-16T03:02:33.879Z,97712.53
2022-11-16T03:05:04.135Z,97703.94
2022-11-16T03:07:36.170Z,97699.00
2022-11-16T03:10:05.348Z,97695.38
2022-11-16T03:12:35.626Z,97698.31
2022-11-16T03:15:07.381Z,97690.47
2022-11-16T03:17:39.463Z,97694.44
2022-11-16T03:20:11.761Z,97689.22
2022-11-16T03:22:41.516Z,97697.19
2022-11-16T03:25:10.796Z,97682.25
2022-11-16T03:27:41.633Z,97689.34
2022-11-16T03:30:13.792Z,97693.91
2022-11-16T03:32:45.360Z,97689.13
2022-11-16T03:35:17.147Z,97689.94
2022-11-16T03:37:46.914Z,97681.75
2022-11-16T03:40:17.179Z,97678.63
2022-11-16T03:42:46.575Z,97680.81
2022-11-16T03:45:17.959Z,97671.16
2022-11-16T03:47:46.784Z,97682.00
2022-11-16T03:50:16.060Z,97670.31
2022-11-16T03:52:44.664Z,97674.50
2022-11-16T03:55:13.271Z,97676.00
2022-11-16T03:57:41.836Z,97673.94
2022-11-16T04:00:12.625Z,97677.50
2022-11-16T04:02:42.539Z,97669.66
2022-11-16T04:05:28.692Z,97678.50
2022-11-16T04:08:14.803Z,97679.56
2022-11-16T04:11:01.470Z,97680.09
2022-11-16T04:13:49.479Z,97683.19
2022-11-16T04:16:35.651Z,97682.63
2022-11-16T04:19:22.224Z,97684.22
2022-11-16T04:22:13.336Z,97696.22
2022-11-16T04:24:45.432Z,97703.03
2022-11-16T04:27:38.547Z,97709.28
2022-11-16T04:30:08.568Z,97706.66
2022-11-16T04:32:54.779Z,97711.88
2022-11-16T04:35:42.314Z,97707.22
2022-11-16T04:38:10.949Z,97702.56
2022-11-16T04:40:39.531Z,97700.44
2022-11-16T04:43:08.497Z,97702.00
2022-11-16T04:45:54.021Z,97711.88
2022-11-16T04:48:22.658Z,97722.56
2022-11-16T04:50:52.587Z,97729.28
2022-11-16T04:53:22.579Z,97730.06
2022-11-16T04:55:51.172Z,97723.34
2022-11-16T04:58:19.848Z,97716.63
2022-11-16T05:00:48.436Z,97714.56
2022-11-16T05:03:17.069Z,97715.38
2022-11-16T05:05:45.628Z,97710.72
2022-11-16T05:08:15.611Z,97704.47
2022-11-16T05:10:44.258Z,97700.03
2022-11-16T05:13:12.859Z,97699.25
2022-11-16T05:15:41.490Z,97708.97
2022-11-16T05:18:10.063Z,97711.94
2022-11-16T05:20:56.284Z,97702.75
2022-11-16T05:23:43.736Z,97716.56
2022-11-16T05:26:12.327Z,97701.72
2022-11-16T05:28:40.928Z,97705.91
2022-11-16T05:31:09.516Z,97717.69
2022-11-16T05:33:38.130Z,97726.34
2022-11-16T05:36:07.438Z,97725.84
2022-11-16T05:38:37.395Z,97726.63
2022-11-16T05:41:06.128Z,97726.97
2022-11-16T05:43:34.758Z,97729.34
2022-11-16T05:46:03.346Z,97724.91
2022-11-16T05:48:32.290Z,97726.16
2022-11-16T05:51:01.278Z,97726.63
2022-11-16T05:53:29.877Z,97722.66
2022-11-16T05:55:59.902Z,97719.03
2022-11-16T05:58:28.609Z,97723.72
2022-11-16T06:00:57.248Z,97733.13
2022-11-16T06:03:25.945Z,97726.53
2022-11-16T06:05:56.250Z,97724.16
2022-11-16T06:08:25.242Z,97714.53
2022-11-16T06:10:53.908Z,97720.63
2022-11-16T06:13:23.871Z,97722.66
2022-11-16T06:15:52.448Z,97720.16
2022-11-16T06:18:21.366Z,97732.09
2022-11-16T06:20:50.139Z,97732.19
2022-11-16T06:23:18.725Z,97736.59
2022-11-16T06:25:47.336Z,97736.38
2022-11-16T06:28:15.939Z,97737.97
2022-11-16T06:30:45.925Z,97748.63
2022-11-16T06:33:14.691Z,97746.66
2022-11-16T06:35:43.708Z,97746.66
2022-11-16T06:38:18.211Z,97740.56
2022-11-16T06:40:47.033Z,97738.59
2022-11-16T06:43:15.648Z,97746.13
2022-11-16T06:45:44.281Z,97737.97
2022-11-16T06:48:14.226Z,97747.38
2022-11-16T06:50:43.092Z,97753.72
2022-11-16T06:53:11.729Z,97751.25
2022-11-16T06:55:40.315Z,97757.81
2022-11-16T06:58:09.058Z,97755.22
2022-11-16T07:00:37.709Z,97762.22
2022-11-16T07:03:06.503Z,97765.66
2022-11-16T07:05:40.812Z,97772.91
2022-11-16T07:08:09.628Z,97766.25
2022-11-16T07:10:39.143Z,97782.34
2022-11-16T07:13:07.734Z,97776.16
2022-11-16T07:15:36.408Z,97787.09
2022-11-16T07:18:06.222Z,97786.38
2022-11-16T07:20:38.071Z,97792.16
2022-11-16T07:23:11.354Z,97797.63
2022-11-16T07:25:42.524Z,97802.84
2022-11-16T07:28:11.168Z,97805.94
2022-11-16T07:30:39.789Z,97795.50
2022-11-16T07:33:08.438Z,97807.97
2022-11-16T07:35:38.392Z,97811.63
2022-11-16T07:38:06.977Z,97806.47
2022-11-16T07:40:35.625Z,97813.84
2022-11-16T07:43:04.297Z,97807.59
2022-11-16T07:45:33.160Z,97808.63
2022-11-16T07:48:02.126Z,97811.47
2022-11-16T07:50:30.762Z,97819.63
2022-11-16T07:53:00.758Z,97822.91
2022-11-16T07:55:31.915Z,97824.50
2022-11-16T07:58:00.929Z,97824.50
2022-11-16T08:00:29.537Z,97829.47
2022-11-16T08:02:58.231Z,97830.81
2022-11-16T08:05:26.898Z,97835.78
2022-11-16T08:07:55.562Z,97829.00
2022-11-16T08:10:25.615Z,97834.28
2022-11-16T08:12:55.027Z,97833.84
2022-11-16T08:15:23.835Z,97835.75
2022-11-16T08:17:52.629Z,97831.66
2022-11-16T08:20:21.343Z,97828.88
2022-11-16T08:22:50.635Z,97826.50
2022-11-16T08:25:19.508Z,97820.34
2022-11-16T08:27:49.464Z,97821.22
2022-11-16T08:30:18.364Z,97820.03
2022-11-16T08:32:47.025Z,97822.47
2022-11-16T08:35:15.807Z,97829.28
2022-11-16T08:37:44.416Z,97828.00
2022-11-16T08:40:14.524Z,97828.34
2022-11-16T08:42:43.969Z,97834.44
2022-11-16T08:45:14.513Z,97828.16
2022-11-16T08:47:43.144Z,97836.34
2022-11-16T08:50:11.776Z,97846.06
2022-11-16T08:52:40.404Z,97842.66
2022-11-16T08:55:10.242Z,97847.41
2022-11-16T08:57:38.864Z,97844.09
2022-11-16T09:00:09.142Z,97850.69
2022-11-16T09:02:39.465Z,97855.91
2022-11-16T09:05:11.793Z,97859.31
2022-11-16T09:07:40.757Z,97861.47
2022-11-16T09:10:10.476Z,97858.91
2022-11-16T09:12:39.664Z,97856.06
2022-11-16T09:15:09.510Z,97853.22
2022-11-16T09:17:39.487Z,97854.06
2022-11-16T09:20:09.349Z,97852.56
2022-11-16T09:22:37.979Z,97859.72
2022-11-16T09:25:07.966Z,97848.69
2022-11-16T09:27:36.624Z,97851.00
2022-11-16T09:30:06.483Z,97854.88
2022-11-16T09:32:35.140Z,97851.69
2022-11-16T09:35:05.776Z,97854.81
2022-11-16T09:37:34.440Z,97854.88
2022-11-16T09:40:03.116Z,97859.63
2022-11-16T09:42:43.376Z,97856.22
2022-11-16T09:45:16.842Z,97856.53
2022-11-16T09:47:49.981Z,97862.13
2022-11-16T09:50:28.751Z,97864.59
2022-11-16T09:53:00.448Z,97876.66
2022-11-16T09:55:33.275Z,97870.31
2022-11-16T09:58:04.580Z,97868.06
2022-11-16T10:00:33.978Z,97857.88
2022-11-16T10:03:05.501Z,97861.06
2022-11-16T10:05:39.600Z,97853.53
2022-11-16T10:08:15.513Z,97853.31
2022-11-16T10:10:49.084Z,97853.31
2022-11-16T10:13:28.128Z,97848.84
2022-11-16T10:16:03.001Z,97844.47
2022-11-16T10:18:41.294Z,97845.75
2022-11-16T10:21:30.029Z,97852.56
2022-11-16T10:24:10.653Z,97850.72
2022-11-16T10:26:45.668Z,97847.13
2022-11-16T10:29:30.216Z,97842.13
2022-11-16T10:32:07.611Z,97845.00
2022-11-16T10:34:44.889Z,97847.09
2022-11-16T10:37:15.167Z,97837.09
2022-11-16T10:39:43.834Z,97833.44
2022-11-16T10:42:14.264Z,97827.13
2022-11-16T10:44:45.747Z,97827.06
2022-11-16T10:47:19.890Z,97813.47
2022-11-16T10:49:54.622Z,97806.19
2022-11-16T10:52:25.216Z,97816.03
2022-11-16T10:54:54.324Z,97813.13
2022-11-16T10:57:24.847Z,97800.53
2022-11-16T10:59:55.618Z,97794.31
2022-11-16T11:02:31.200Z,97799.84
2022-11-16T11:05:11.874Z,97801.75
2022-11-16T11:07:46.059Z,97801.78
2022-11-16T11:10:28.654Z,97810.25
2022-11-16T11:13:30.747Z,97796.44
2022-11-16T11:16:15.887Z,97803.25
2022-11-16T11:18:44.563Z,97792.22
2022-11-16T11:21:19.688Z,97787.41
2022-11-16T11:23:52.366Z,97791.28
2022-11-16T11:26:36.128Z,97789.06
2022-11-16T11:29:18.351Z,97782.00
2022-11-16T11:31:48.457Z,97785.59
2022-11-16T11:34:19.203Z,97782.13
2022-11-16T11:36:50.386Z,97783.47
2022-11-16T11:39:34.788Z,97782.38
2022-11-16T11:42:06.980Z,97781.84
2022-11-16T11:44:50.170Z,97771.38
2022-11-16T11:50:22.114Z,97771.44
2022-11-16T11:53:02.087Z,97775.13
2022-11-16T11:55:32.418Z,97765.53
2022-11-16T11:58:03.284Z,97776.16
2022-11-16T12:00:38.844Z,97764.34
2022-11-16T12:03:24.644Z,97764.00
2022-11-16T12:06:09.716Z,97769.06
2022-11-16T12:08:51.914Z,97773.88
2022-11-16T12:11:27.583Z,97766.59
2022-11-16T12:14:04.310Z,97766.38
2022-11-16T12:16:39.032Z,97764.28
2022-11-16T12:19:21.794Z,97751.47
2022-11-16T12:21:59.121Z,97748.84
2022-11-16T12:24:37.859Z,97756.25
2022-11-16T12:27:16.236Z,97748.94
2022-11-16T12:29:52.507Z,97749.44
2022-11-16T12:32:42.915Z,97749.22
2022-11-16T12:35:34.719Z,97756.81
2022-11-16T12:38:09.752Z,97746.06
2022-11-16T12:40:50.176Z,97739.25
2022-11-16T12:43:22.511Z,97745.34
2022-11-16T12:46:06.951Z,97751.16
2022-11-16T12:49:02.868Z,97753.00
2022-11-16T12:51:41.156Z,97742.75
2022-11-16T12:54:36.619Z,97735.84
2022-11-16T12:57:09.344Z,97733.69
2022-11-16T13:00:02.877Z,97728.38
2022-11-16T13:02:46.158Z,97728.88
2022-11-16T13:05:18.240Z,97736.19
2022-11-16T13:07:49.076Z,97726.97
2022-11-16T13:10:19.981Z,97732.84
2022-11-16T13:12:55.838Z,97725.00
2022-11-16T13:15:37.237Z,97731.56
2022-11-16T13:18:08.659Z,97733.34
2022-11-16T13:20:42.980Z,97736.22
2022-11-16T13:23:17.100Z,97728.84
2022-11-16T13:25:51.390Z,97720.75
2022-11-16T13:28:32.138Z,97720.75
2022-11-16T13:31:09.184Z,97715.22
2022-11-16T13:33:49.273Z,97701.59
2022-11-16T13:36:47.636Z,97702.13
2022-11-16T13:39:22.365Z,97701.28
2022-11-16T13:41:53.069Z,97707.06
2022-11-16T13:44:30.032Z,97700.75
2022-11-16T13:47:04.310Z,97702.63
2022-11-16T13:49:38.102Z,97711.06
2022-11-16T13:52:26.635Z,97701.66
2022-11-16T13:54:57.732Z,97704.53
2022-11-16T13:57:27.734Z,97698.28
2022-11-16T14:00:09.755Z,97691.75
2022-11-16T14:02:40.826Z,97709.28
2022-11-16T14:05:17.420Z,97708.50
2022-11-16T14:07:49.558Z,97704.59
2022-11-16T14:11:10.051Z,97693.06
2022-11-16T14:13:39.837Z,97696.72
2022-11-16T14:16:48.121Z,97690.69
2022-11-16T14:19:55.904Z,97693.63
2022-11-16T14:22:46.514Z,97698.03
2022-11-16T14:25:23.944Z,97697.81
2022-11-16T14:27:58.623Z,97682.09
2022-11-16T14:30:29.993Z,97678.16
2022-11-16T14:32:59.062Z,97671.63
2022-11-16T14:35:36.846Z,97670.03
2022-11-16T14:38:07.872Z,97673.19
2022-11-16T14:40:44.690Z,97667.66
2022-11-16T14:43:18.960Z,97663.41
2022-11-16T14:45:49.077Z,97663.34
2022-11-16T14:48:19.418Z,97665.72
2022-11-16T14:51:01.897Z,97664.63
2022-11-16T14:53:30.735Z,97664.09
2022-11-16T14:56:13.003Z,97654.38
2022-11-16T14:58:51.790Z,97657.13
2022-11-16T15:01:22.102Z,97662.59
2022-11-16T15:03:55.285Z,97650.53
2022-11-16T15:06:26.229Z,97643.97
2022-11-16T15:08:58.653Z,97650.19
2022-11-16T15:11:49.559Z,97649.94
2022-11-16T15:14:19.853Z,97651.78
2022-11-16T15:16:51.240Z,97648.84
2022-11-16T15:19:20.041Z,97647.50
2022-11-16T15:21:54.210Z,97648.97
2022-11-16T15:24:30.515Z,97654.13
2022-11-16T15:27:10.244Z,97654.09
2022-11-16T15:29:39.213Z,97640.75
2022-11-16T15:32:08.708Z,97646.97
2022-11-16T15:34:39.454Z,97661.84
2022-11-16T15:37:15.113Z,97644.44
2022-11-16T15:39:44.021Z,97643.56
2022-11-16T15:42:15.022Z,97645.31
2022-11-16T15:44:44.376Z,97637.97
2022-11-16T15:47:13.511Z,97643.63
2022-11-16T15:49:42.516Z,97633.94
2022-11-16T15:52:12.520Z,97631.03
2022-11-16T15:54:58.864Z,97630.47
2022-11-16T15:57:27.673Z,97631.47
2022-11-16T15:59:57.393Z,97636.31
2022-11-16T16:02:28.292Z,97646.06
2022-11-16T16:04:57.267Z,97644.69
2022-11-16T16:07:40.624Z,97638.88
2022-11-16T16:10:14.549Z,97639.38
2022-11-16T16:12:48.853Z,97629.47
2022-11-16T16:15:24.868Z,97637.28
2022-11-16T16:17:54.481Z,97632.25
2022-11-16T16:20:25.491Z,97622.69
2022-11-16T16:23:06.970Z,97644.53
2022-11-16T16:25:37.044Z,97639.97
2022-11-16T16:28:05.951Z,97643.50
2022-11-16T16:30:35.783Z,97649.44
2022-11-16T16:33:04.628Z,97642.09
2022-11-16T16:35:33.483Z,97636.31
2022-11-16T16:38:03.518Z,97637.97
2022-11-16T16:40:32.146Z,97635.13
2022-11-16T16:43:00.820Z,97640.41
2022-11-16T16:45:35.418Z,97632.81
2022-11-16T16:48:04.415Z,97632.28
2022-11-16T16:50:33.084Z,97633.28
2022-11-16T16:53:03.139Z,97637.41
2022-11-16T16:55:37.006Z,97623.19
2022-11-16T16:58:06.571Z,97625.16
2022-11-16T17:00:35.203Z,97619.22
2022-11-16T17:03:03.946Z,97615.25
2022-11-16T17:05:33.880Z,97615.81
2022-11-16T17:08:04.154Z,97617.38
2022-11-16T17:10:32.861Z,97616.38
2022-11-16T17:13:03.051Z,97608.44
2022-11-16T17:15:31.873Z,97612.25
2022-11-16T17:18:00.776Z,97616.09
2022-11-16T17:20:29.466Z,97611.94
2022-11-16T17:22:58.122Z,97608.75
2022-11-16T17:25:28.251Z,97616.47
2022-11-16T17:27:56.924Z,97612.38
2022-11-16T17:30:25.821Z,97610.72
2022-11-16T17:32:54.470Z,97618.00
2022-11-16T17:35:23.167Z,97611.09
2022-11-16T17:37:52.541Z,97614.75
2022-11-16T17:40:21.590Z,97613.81
2022-11-16T17:42:52.007Z,97603.44
2022-11-16T17:45:20.660Z,97600.16
2022-11-16T17:47:49.271Z,97606.19
2022-11-16T17:50:18.229Z,97596.88
2022-11-16T17:52:46.965Z,97592.13
2022-11-16T17:55:15.732Z,97587.59
2022-11-16T17:57:44.419Z,97587.13
2022-11-16T18:00:16.255Z,97583.50
2022-11-16T18:02:45.031Z,97587.34
2022-11-16T18:05:13.683Z,97584.66
2022-11-16T18:07:42.305Z,97589.50
2022-11-16T18:10:16.279Z,97586.13
2022-11-16T18:12:47.598Z,97585.00
2022-11-16T18:15:36.507Z,97581.66
2022-11-16T18:18:06.696Z,97581.28
2022-11-16T18:20:36.976Z,97574.72
2022-11-16T18:23:06.191Z,97573.38
2022-11-16T18:25:36.902Z,97572.09
2022-11-16T18:28:05.823Z,97560.25
2022-11-16T18:30:35.824Z,97563.56
2022-11-16T18:33:04.561Z,97564.00
2022-11-16T18:35:33.247Z,97551.69
2022-11-16T18:38:02.740Z,97564.47
2022-11-16T18:40:31.386Z,97555.75
2022-11-16T18:43:00.072Z,97546.16
2022-11-16T18:45:28.923Z,97535.72
2022-11-16T18:47:58.971Z,97529.63
2022-11-16T18:50:27.595Z,97525.09
2022-11-16T18:52:57.509Z,97526.38
2022-11-16T18:55:26.169Z,97517.66
2022-11-16T18:57:54.889Z,97510.34
2022-11-16T19:00:23.639Z,97502.31
2022-11-16T19:02:52.341Z,97515.00
2022-11-16T19:05:22.405Z,97512.38
2022-11-16T19:07:51.037Z,97504.81
2022-11-16T19:10:19.690Z,97494.06
2022-11-16T19:12:48.292Z,97493.38
2022-11-16T19:15:17.142Z,97497.00
2022-11-16T19:18:06.739Z,97501.78
2022-11-16T19:20:35.996Z,97507.34
2022-11-16T19:23:04.641Z,97510.75
2022-11-16T19:25:33.351Z,97509.16
2022-11-16T19:28:03.783Z,97510.75
2022-11-16T19:30:32.770Z,97508.59
2022-11-16T19:33:02.289Z,97498.97
2022-11-16T19:35:30.960Z,97494.78
2022-11-16T19:38:00.997Z,97498.44
2022-11-16T19:40:29.690Z,97501.47
2022-11-16T19:42:58.350Z,97515.63
2022-11-16T19:45:28.190Z,97511.09
2022-11-16T19:47:57.208Z,97509.50
2022-11-16T19:50:25.917Z,97508.72
2022-11-16T19:52:54.577Z,97516.06
2022-11-16T19:55:24.565Z,97511.34
2022-11-16T19:57:53.265Z,97512.44
2022-11-16T20:00:22.009Z,97526.69
2022-11-16T20:02:50.670Z,97536.00
2022-11-16T20:05:19.287Z,97533.25
2022-11-16T20:07:49.504Z,97539.25
2022-11-16T20:10:18.272Z,97537.56
2022-11-16T20:12:49.680Z,97542.53
2022-11-16T20:15:18.314Z,97542.75
2022-11-16T20:17:46.956Z,97541.63
2022-11-16T20:20:15.821Z,97536.19
2022-11-16T20:22:44.579Z,97500.78
2022-11-16T20:25:13.238Z,97490.16
2022-11-16T20:27:41.923Z,97487.34
2022-11-16T20:30:13.119Z,97475.91
2022-11-16T20:32:41.817Z,97468.94
2022-11-16T20:35:13.731Z,97471.75
2022-11-16T20:37:46.067Z,97480.78
2022-11-16T20:40:15.597Z,97477.84
2022-11-16T20:42:44.197Z,97471.50
2022-11-16T20:45:14.216Z,97474.09
2022-11-16T20:47:42.864Z,97470.16
2022-11-16T20:50:11.515Z,97474.09
2022-11-16T20:52:43.645Z,97482.34
2022-11-16T20:55:13.783Z,97491.84
2022-11-16T20:57:42.422Z,97474.56
2022-11-16T21:00:12.366Z,97481.00
2022-11-16T21:02:42.338Z,97486.41
2022-11-16T21:05:11.014Z,97483.13
2022-11-16T21:07:41.635Z,97472.19
2022-11-16T21:10:28.144Z,97461.56
2022-11-16T21:13:14.143Z,97452.16
2022-11-16T21:15:42.725Z,97443.00
2022-11-16T21:18:12.711Z,97439.63
2022-11-16T21:20:41.300Z,97433.41
2022-11-16T21:23:09.948Z,97436.34
2022-11-16T21:25:38.529Z,97436.56
2022-11-16T21:28:07.147Z,97441.88
2022-11-16T21:30:35.804Z,97435.56
2022-11-16T21:33:04.573Z,97447.44
2022-11-16T21:35:34.528Z,97443.91
2022-11-16T21:38:03.150Z,97442.56
2022-11-16T21:40:31.750Z,97439.72
2022-11-16T21:43:00.395Z,97438.94
2022-11-16T21:45:29.008Z,97438.81
2022-11-16T21:47:58.057Z,97434.31
2022-11-16T21:50:33.986Z,97442.31
2022-11-16T21:53:04.168Z,97439.44
2022-11-16T21:55:33.077Z,97434.84
2022-11-16T21:58:03.396Z,97429.06
2022-11-16T22:00:32.074Z,97428.50
2022-11-16T22:03:00.685Z,97432.25
2022-11-16T22:05:46.957Z,97428.63
2022-11-16T22:08:16.976Z,97418.78
2022-11-16T22:10:50.542Z,97420.38
2022-11-16T22:13:19.198Z,97426.28
2022-11-16T22:15:47.928Z,97423.09
2022-11-16T22:18:16.534Z,97435.53
2022-11-16T22:20:48.019Z,97438.13
2022-11-16T22:23:22.702Z,97440.03
2022-11-16T22:25:52.775Z,97437.44
2022-11-16T22:28:21.709Z,97437.44
2022-11-16T22:30:52.290Z,97434.94
2022-11-16T22:33:21.350Z,97426.47
2022-11-16T22:35:49.973Z,97419.25
2022-11-16T22:38:19.962Z,97419.56
2022-11-16T22:40:52.549Z,97411.56
2022-11-16T22:43:22.187Z,97404.22
2022-11-16T22:45:50.872Z,97415.88
2022-11-16T22:48:19.480Z,97406.25
2022-11-16T22:50:48.072Z,97397.47
2022-11-16T22:53:16.764Z,97402.66
2022-11-16T22:55:46.764Z,97393.03
2022-11-16T22:58:15.364Z,97393.97
2022-11-16T23:00:43.991Z,97394.53
2022-11-16T23:03:12.673Z,97387.06
2022-11-16T23:05:41.369Z,97382.09
2022-11-16T23:08:09.992Z,97379.72
2022-11-16T23:10:58.611Z,97384.13
2022-11-16T23:13:45.947Z,97376.31
2022-11-16T23:16:14.584Z,97373.97
2022-11-16T23:18:43.264Z,97375.00
2022-11-16T23:21:29.680Z,97376.66
2022-11-16T23:24:21.060Z,97374.53
2022-11-16T23:27:07.359Z,97378.72
2022-11-16T23:29:37.330Z,97379.72
2022-11-16T23:32:06.457Z,97373.97
2022-11-16T23:34:35.061Z,97371.94
2022-11-16T23:37:04.448Z,97367.19
2022-11-16T23:39:33.383Z,97359.59
2022-11-16T23:42:19.597Z,97365.28
2022-11-16T23:44:49.565Z,97358.63
2022-11-16T23:47:18.147Z,97348.09
2022-11-16T23:49:46.763Z,97344.13
2022-11-16T23:52:15.504Z,97339.53
2022-11-16T23:54:44.179Z,97341.44
2022-11-16T23:57:13.083Z,97338.59
2022-11-16T23:59:41.656Z,97334.19
